createdAt,value
2019-06-10T00:02:30.891Z,99594.53
2019-06-10T00:05:05.562Z,99600.15
2019-06-10T00:07:37.400Z,99605.11
2019-06-10T00:10:10.788Z,99600.34
2019-06-10T00:12:41.966Z,99605.34
2019-06-10T00:15:14.465Z,99606.96
2019-06-10T00:18:01.238Z,99608.42
2019-06-10T00:20:22.437Z,99612.20
2019-06-10T00:22:55.066Z,99607.39
2019-06-10T00:25:25.600Z,99601.35
2019-06-10T00:27:56.416Z,99596.41
2019-06-10T00:30:31.400Z,99588.39
2019-06-10T00:33:06.067Z,99585.05
2019-06-10T00:35:37.499Z,99588.13
2019-06-10T00:38:09.361Z,99587.08
2019-06-10T00:40:41.401Z,99587.16
2019-06-10T00:43:14.668Z,99586.11
2019-06-10T00:45:47.632Z,99590.15
2019-06-10T00:48:28.307Z,99588.59
2019-06-10T00:50:54.515Z,99590.20
2019-06-10T00:53:27.592Z,99585.12
2019-06-10T00:55:58.551Z,99585.20
2019-06-10T00:58:31.804Z,99588.10
2019-06-10T01:01:04.229Z,99584.96
2019-06-10T01:03:35.627Z,99583.72
2019-06-10T01:06:08.533Z,99586.95
2019-06-10T01:08:41.714Z,99584.12
2019-06-10T01:11:21.243Z,99581.37
2019-06-10T01:13:50.791Z,99578.39
2019-06-10T01:16:23.797Z,99578.73
2019-06-10T01:18:54.823Z,99569.70
2019-06-10T01:21:26.810Z,99561.63
2019-06-10T01:23:57.708Z,99558.87
2019-06-10T01:26:31.148Z,99553.73
2019-06-10T01:29:01.766Z,99546.95
2019-06-10T01:31:32.879Z,99546.64
2019-06-10T01:34:05.451Z,99535.66
2019-06-10T01:36:37.971Z,99521.86
2019-06-10T01:39:11.978Z,99518.13
2019-06-10T01:41:44.896Z,99514.39
2019-06-10T01:44:16.440Z,99510.59
2019-06-10T01:46:48.025Z,99510.73
2019-06-10T01:49:21.446Z,99508.36
2019-06-10T01:51:54.124Z,99510.36
2019-06-10T01:54:24.949Z,99513.48
2019-06-10T01:56:56.033Z,99515.09
2019-06-10T01:59:26.999Z,99515.39
2019-06-10T02:02:19.328Z,99522.03
2019-06-10T02:04:51.772Z,99524.32
2019-06-10T02:07:24.312Z,99509.91
2019-06-10T02:09:55.064Z,99507.77
2019-06-10T02:12:28.002Z,99508.86
2019-06-10T02:15:01.392Z,99509.67
2019-06-10T02:17:33.999Z,99502.98
2019-06-10T02:20:06.480Z,99499.63
2019-06-10T02:22:38.123Z,99493.96
2019-06-10T02:25:12.272Z,99488.33
2019-06-10T02:27:43.164Z,99486.73
2019-06-10T02:30:28.448Z,99486.12
2019-06-10T02:32:52.547Z,99480.19
2019-06-10T02:35:30.613Z,99475.75
2019-06-10T02:37:56.323Z,99473.52
2019-06-10T02:40:32.056Z,99473.37
2019-06-10T02:43:03.490Z,99473.22
2019-06-10T02:45:37.454Z,99476.50
2019-06-10T02:48:07.291Z,99467.72
2019-06-10T02:51:04.917Z,99462.84
2019-06-10T02:53:37.354Z,99451.11
2019-06-10T02:56:09.282Z,99452.45
2019-06-10T02:58:44.943Z,99464.12
2019-06-10T03:01:17.348Z,99469.46
2019-06-10T03:03:54.219Z,99472.99
2019-06-10T03:06:32.325Z,99475.89
2019-06-10T03:08:59.331Z,99476.58
2019-06-10T03:11:36.465Z,99468.69
2019-06-10T03:14:07.221Z,99457.44
2019-06-10T03:16:45.751Z,99459.88
2019-06-10T03:19:33.232Z,99466.87
2019-06-10T03:21:52.178Z,99467.72
2019-06-10T03:24:25.168Z,99466.00
2019-06-10T03:26:56.458Z,99466.72
2019-06-10T03:29:28.222Z,99470.35
2019-06-10T03:31:59.404Z,99473.04
2019-06-10T03:34:40.539Z,99469.44
2019-06-10T03:37:07.362Z,99461.03
2019-06-10T03:39:37.804Z,99472.55
2019-06-10T03:42:08.519Z,99472.22
2019-06-10T03:44:39.423Z,99467.73
2019-06-10T03:47:12.382Z,99471.68
2019-06-10T03:49:52.314Z,99464.84
2019-06-10T03:52:19.329Z,99471.36
2019-06-10T03:54:52.527Z,99469.66
2019-06-10T03:57:27.315Z,99470.58
2019-06-10T03:59:58.507Z,99466.44
2019-06-10T04:02:32.565Z,99460.08
2019-06-10T04:05:06.072Z,99456.61
2019-06-10T04:07:36.681Z,99457.91
2019-06-10T04:10:12.559Z,99454.40
2019-06-10T04:12:45.676Z,99449.41
2019-06-10T04:15:17.729Z,99450.42
2019-06-10T04:17:48.769Z,99453.05
2019-06-10T04:20:19.890Z,99449.42
2019-06-10T04:22:52.312Z,99452.78
2019-06-10T04:25:27.683Z,99442.09
2019-06-10T04:27:57.785Z,99441.40
2019-06-10T04:30:29.591Z,99435.52
2019-06-10T04:33:02.311Z,99437.65
2019-06-10T04:35:33.795Z,99436.24
2019-06-10T04:38:05.807Z,99435.63
2019-06-10T04:40:37.677Z,99438.31
2019-06-10T04:43:12.428Z,99436.35
2019-06-10T04:45:44.283Z,99436.10
2019-06-10T04:48:15.703Z,99428.02
2019-06-10T04:50:48.854Z,99423.77
2019-06-10T04:53:23.761Z,99422.78
2019-06-10T04:55:55.918Z,99421.30
2019-06-10T04:58:29.122Z,99421.95
2019-06-10T05:01:03.045Z,99425.46
2019-06-10T05:03:34.973Z,99420.30
2019-06-10T05:06:06.881Z,99434.08
2019-06-10T05:08:38.006Z,99429.83
2019-06-10T05:11:09.955Z,99425.86
2019-06-10T05:13:42.920Z,99434.11
2019-06-10T05:16:14.976Z,99425.39
2019-06-10T05:18:46.899Z,99421.94
2019-06-10T05:21:22.969Z,99423.86
2019-06-10T05:23:53.049Z,99429.64
2019-06-10T05:26:26.038Z,99427.52
2019-06-10T05:28:57.126Z,99419.56
2019-06-10T05:31:31.185Z,99429.13
2019-06-10T05:34:03.066Z,99426.03
2019-06-10T05:36:35.069Z,99432.83
2019-06-10T05:39:07.705Z,99425.39
2019-06-10T05:41:40.154Z,99423.47
2019-06-10T05:44:13.385Z,99416.34
2019-06-10T05:46:46.181Z,99418.85
2019-06-10T05:49:18.807Z,99419.33
2019-06-10T05:51:52.568Z,99417.66
2019-06-10T05:54:24.586Z,99416.05
2019-06-10T05:56:57.171Z,99411.52
2019-06-10T05:59:29.462Z,99402.25
2019-06-10T06:02:02.281Z,99403.08
2019-06-10T06:04:34.663Z,99390.06
2019-06-10T06:07:07.280Z,99392.80
2019-06-10T06:09:38.234Z,99385.42
2019-06-10T06:12:11.899Z,99386.85
2019-06-10T06:14:43.277Z,99389.97
2019-06-10T06:17:16.782Z,99385.30
2019-06-10T06:19:49.263Z,99382.81
2019-06-10T06:22:22.123Z,99387.78
2019-06-10T06:24:53.344Z,99385.92
2019-06-10T06:27:24.319Z,99392.59
2019-06-10T06:29:56.337Z,99385.86
2019-06-10T06:32:30.431Z,99397.67
2019-06-10T06:35:02.153Z,99401.20
2019-06-10T06:37:37.733Z,99402.59
2019-06-10T06:40:13.071Z,99404.83
2019-06-10T06:42:45.424Z,99394.67
2019-06-10T06:45:18.799Z,99392.36
2019-06-10T06:47:49.331Z,99383.59
2019-06-10T06:50:25.545Z,99381.28
2019-06-10T06:53:20.951Z,99375.09
2019-06-10T06:55:30.676Z,99391.13
2019-06-10T06:58:03.400Z,99388.13
2019-06-10T07:00:52.995Z,99381.84
2019-06-10T07:03:08.401Z,99379.31
2019-06-10T07:05:43.363Z,99381.16
2019-06-10T07:08:16.683Z,99362.88
2019-06-10T07:10:49.527Z,99361.20
2019-06-10T07:13:22.221Z,99353.11
2019-06-10T07:15:53.621Z,99365.06
2019-06-10T07:18:24.480Z,99361.89
2019-06-10T07:20:56.703Z,99364.21
2019-06-10T07:23:29.669Z,99362.27
2019-06-10T07:26:02.306Z,99363.94
2019-06-10T07:28:37.505Z,99359.23
2019-06-10T07:31:20.899Z,99348.29
2019-06-10T07:33:46.922Z,99350.77
2019-06-10T07:36:16.734Z,99348.50
2019-06-10T07:38:49.308Z,99343.80
2019-06-10T07:41:23.291Z,99343.44
2019-06-10T07:43:53.776Z,99333.27
2019-06-10T07:46:25.708Z,99338.46
2019-06-10T07:48:58.754Z,99331.60
2019-06-10T07:51:32.892Z,99329.86
2019-06-10T07:54:06.466Z,99330.49
2019-06-10T07:56:44.322Z,99328.73
2019-06-10T07:59:12.867Z,99326.34
2019-06-10T08:01:51.388Z,99328.06
2019-06-10T08:04:19.687Z,99330.20
2019-06-10T08:06:53.037Z,99332.30
2019-06-10T08:09:24.765Z,99329.91
2019-06-10T08:11:56.896Z,99326.85
2019-06-10T08:14:27.857Z,99332.73
2019-06-10T08:16:58.857Z,99337.79
2019-06-10T08:19:35.807Z,99340.16
2019-06-10T08:22:04.364Z,99335.45
2019-06-10T08:24:37.230Z,99345.06
2019-06-10T08:27:11.951Z,99345.06
2019-06-10T08:29:47.688Z,99342.77
2019-06-10T08:32:19.460Z,99349.91
2019-06-10T08:34:49.974Z,99346.98
2019-06-10T08:37:23.374Z,99358.84
2019-06-10T08:39:56.083Z,99356.50
2019-06-10T08:42:28.979Z,99350.53
2019-06-10T08:45:00.285Z,99338.09
2019-06-10T08:47:34.003Z,99339.55
2019-06-10T08:50:06.818Z,99339.67
2019-06-10T08:52:56.895Z,99344.32
2019-06-10T08:55:12.567Z,99331.53
2019-06-10T08:57:47.543Z,99332.36
2019-06-10T09:00:23.291Z,99327.06
2019-06-10T09:02:55.070Z,99326.83
2019-06-10T09:05:28.019Z,99333.05
2019-06-10T09:07:59.387Z,99323.66
2019-06-10T09:10:30.222Z,99321.55
2019-06-10T09:13:02.814Z,99323.37
2019-06-10T09:15:34.172Z,99317.42
2019-06-10T09:18:06.235Z,99319.23
2019-06-10T09:20:40.573Z,99321.39
2019-06-10T09:23:20.928Z,99322.91
2019-06-10T09:25:48.972Z,99310.53
2019-06-10T09:28:18.115Z,99308.48
2019-06-10T09:30:54.027Z,99315.32
2019-06-10T09:33:23.906Z,99300.67
2019-06-10T09:35:55.307Z,99293.42
2019-06-10T09:38:28.244Z,99306.59
2019-06-10T09:41:03.033Z,99290.13
2019-06-10T09:43:33.232Z,99285.19
2019-06-10T09:46:06.434Z,99282.55
2019-06-10T09:48:37.292Z,99278.31
2019-06-10T09:51:09.383Z,99287.95
2019-06-10T09:53:46.506Z,99284.30
2019-06-10T09:56:13.382Z,99279.34
2019-06-10T09:58:47.493Z,99282.83
2019-06-10T10:01:17.529Z,99285.31
2019-06-10T10:03:58.289Z,99281.64
2019-06-10T10:06:25.426Z,99286.81
2019-06-10T10:08:58.279Z,99288.11
2019-06-10T10:11:32.066Z,99284.33
2019-06-10T10:14:08.106Z,99288.61
2019-06-10T10:16:36.560Z,99283.09
2019-06-10T10:19:09.581Z,99279.56
2019-06-10T10:21:45.015Z,99236.42
2019-06-10T10:24:15.657Z,99278.28
2019-06-10T10:26:48.740Z,99277.81
2019-06-10T10:29:19.557Z,99264.38
2019-06-10T10:31:53.996Z,99269.00
2019-06-10T10:34:24.647Z,99280.55
2019-06-10T10:36:57.365Z,99274.22
2019-06-10T10:39:28.626Z,99272.47
2019-06-10T10:42:03.341Z,99265.53
2019-06-10T10:44:35.390Z,99266.73
2019-06-10T10:47:12.383Z,99260.40
2019-06-10T10:49:42.858Z,99261.43
2019-06-10T10:52:14.756Z,99262.47
2019-06-10T10:54:46.751Z,99251.67
2019-06-10T10:57:19.661Z,99242.58
2019-06-10T10:59:53.964Z,99240.41
2019-06-10T11:02:23.833Z,99247.87
2019-06-10T11:04:57.499Z,99234.81
2019-06-10T11:07:33.366Z,99243.34
2019-06-10T11:10:03.899Z,99249.83
2019-06-10T11:12:37.917Z,99247.30
2019-06-10T11:15:09.994Z,99244.42
2019-06-10T11:17:42.676Z,99248.19
2019-06-10T11:20:13.886Z,99247.23
2019-06-10T11:22:45.866Z,99246.63
2019-06-10T11:25:19.115Z,99246.22
2019-06-10T11:27:52.628Z,99241.88
2019-06-10T11:30:22.958Z,99236.52
2019-06-10T11:32:58.298Z,99232.24
2019-06-10T11:35:30.861Z,99233.68
2019-06-10T11:38:04.016Z,99236.83
2019-06-10T11:40:36.660Z,99230.67
2019-06-10T11:43:09.964Z,99229.98
2019-06-10T11:45:48.277Z,99229.26
2019-06-10T11:48:17.965Z,99224.98
2019-06-10T11:50:54.760Z,99218.15
2019-06-10T11:53:28.712Z,99220.98
2019-06-10T11:56:02.446Z,99220.56
2019-06-10T11:58:33.963Z,99210.23
2019-06-10T12:01:06.978Z,99204.05
2019-06-10T12:03:39.002Z,99203.31
2019-06-10T12:06:13.469Z,99207.38
2019-06-10T12:08:45.141Z,99198.92
2019-06-10T12:11:18.120Z,99197.45
2019-06-10T12:13:49.163Z,99194.41
2019-06-10T12:17:14.680Z,99200.27
2019-06-10T12:18:54.181Z,99186.12
2019-06-10T12:21:27.096Z,99191.66
2019-06-10T12:24:02.403Z,99187.66
2019-06-10T12:26:34.208Z,99172.80
2019-06-10T12:29:05.875Z,99172.80
2019-06-10T12:31:37.196Z,99173.41
2019-06-10T12:34:08.465Z,99178.77
2019-06-10T12:36:40.146Z,99176.83
2019-06-10T12:39:15.208Z,99175.59
2019-06-10T12:41:45.203Z,99170.78
2019-06-10T12:44:16.300Z,99169.62
2019-06-10T12:46:49.193Z,99169.91
2019-06-10T12:49:23.152Z,99168.57
2019-06-10T12:51:57.401Z,99163.91
2019-06-10T12:54:29.463Z,99171.52
2019-06-10T12:57:04.718Z,99174.08
2019-06-10T12:59:33.677Z,99165.50
2019-06-10T13:02:15.373Z,99153.91
2019-06-10T13:04:42.777Z,99161.59
2019-06-10T13:07:13.263Z,99163.53
2019-06-10T13:09:45.582Z,99158.40
2019-06-10T13:12:17.338Z,99151.45
2019-06-10T13:14:52.083Z,99155.81
2019-06-10T13:17:23.283Z,99156.73
2019-06-10T13:19:55.491Z,99158.66
2019-06-10T13:22:27.443Z,99149.38
2019-06-10T13:25:00.636Z,99150.50
2019-06-10T13:27:33.413Z,99149.51
2019-06-10T13:30:05.279Z,99152.11
2019-06-10T13:32:38.454Z,99138.91
2019-06-10T13:35:12.469Z,99130.08
2019-06-10T13:37:44.582Z,99122.17
2019-06-10T13:40:16.989Z,99105.38
2019-06-10T13:42:49.493Z,99126.89
2019-06-10T13:45:25.464Z,99121.00
2019-06-10T13:47:56.513Z,99116.22
2019-06-10T13:50:29.668Z,99105.38
2019-06-10T13:53:06.553Z,99098.80
2019-06-10T13:55:38.650Z,99089.55
2019-06-10T13:58:13.905Z,99096.73
2019-06-10T14:00:46.741Z,99087.09
2019-06-10T14:03:17.696Z,99092.75
2019-06-10T14:05:48.765Z,99087.28
2019-06-10T14:08:23.281Z,99088.63
2019-06-10T14:10:55.796Z,99078.89
2019-06-10T14:13:28.714Z,99071.80
2019-06-10T14:16:01.301Z,99075.52
2019-06-10T14:18:32.637Z,99063.83
2019-06-10T14:21:07.980Z,99072.73
2019-06-10T14:23:38.654Z,99069.41
2019-06-10T14:26:12.610Z,99063.19
2019-06-10T14:28:44.809Z,99060.16
2019-06-10T14:31:38.229Z,99063.83
2019-06-10T14:33:53.240Z,99060.59
2019-06-10T14:36:23.778Z,99056.33
2019-06-10T14:38:56.848Z,99062.80
2019-06-10T14:41:32.692Z,99065.75
2019-06-10T14:44:06.811Z,99063.89
2019-06-10T14:46:39.003Z,99050.36
2019-06-10T14:49:14.971Z,99063.59
2019-06-10T14:51:44.868Z,99054.14
2019-06-10T14:54:18.440Z,99051.80
2019-06-10T14:56:56.877Z,99047.44
2019-06-10T14:59:24.863Z,99049.53
2019-06-10T15:01:56.117Z,99051.05
2019-06-10T15:04:27.940Z,99046.08
2019-06-10T15:06:58.965Z,99052.38
2019-06-10T15:09:29.955Z,99039.25
2019-06-10T15:12:03.121Z,99040.46
2019-06-10T15:14:35.121Z,99036.48
2019-06-10T15:17:08.451Z,99036.92
2019-06-10T15:19:39.069Z,99031.49
2019-06-10T15:22:12.203Z,99030.52
2019-06-10T15:24:42.993Z,99032.03
2019-06-10T15:27:23.698Z,99035.84
2019-06-10T15:29:52.417Z,99038.84
2019-06-10T15:32:33.750Z,99029.21
2019-06-10T15:34:58.062Z,99023.00
2019-06-10T15:37:29.148Z,99023.42
2019-06-10T15:40:00.120Z,99009.14
2019-06-10T15:42:33.278Z,99015.25
2019-06-10T15:45:06.220Z,99005.33
2019-06-10T15:47:38.123Z,99004.38
2019-06-10T15:50:12.751Z,98992.16
2019-06-10T15:52:44.106Z,99004.11
2019-06-10T15:55:42.674Z,98998.06
2019-06-10T15:57:50.220Z,99008.99
2019-06-10T16:00:24.291Z,99001.06
2019-06-10T16:02:58.439Z,98997.80
2019-06-10T16:05:29.329Z,99006.38
2019-06-10T16:08:02.352Z,99002.47
2019-06-10T16:10:34.410Z,98998.32
2019-06-10T16:13:07.405Z,98999.23
2019-06-10T16:15:40.319Z,99002.08
2019-06-10T16:18:13.623Z,98991.47
2019-06-10T16:20:45.231Z,98988.78
2019-06-10T16:23:19.665Z,98992.83
2019-06-10T16:25:53.111Z,99001.56
2019-06-10T16:28:26.496Z,98999.31
2019-06-10T16:30:57.375Z,98996.49
2019-06-10T16:33:28.475Z,98990.37
2019-06-10T16:36:02.889Z,98992.11
2019-06-10T16:38:35.427Z,98992.82
2019-06-10T16:41:08.561Z,98987.76
2019-06-10T16:43:42.864Z,98987.93
2019-06-10T16:46:14.476Z,98989.27
2019-06-10T16:48:46.489Z,98995.02
2019-06-10T16:51:17.834Z,98999.48
2019-06-10T16:53:52.938Z,98991.29
2019-06-10T16:56:26.449Z,98990.41
2019-06-10T16:58:59.417Z,98987.97
2019-06-10T17:01:33.220Z,98977.63
2019-06-10T17:04:04.788Z,98986.73
2019-06-10T17:06:37.677Z,98980.09
2019-06-10T17:09:13.308Z,98974.59
2019-06-10T17:11:45.666Z,98972.77
2019-06-10T17:14:20.009Z,98967.34
2019-06-10T17:16:52.928Z,98966.28
2019-06-10T17:19:27.341Z,98961.80
2019-06-10T17:21:58.825Z,98943.42
2019-06-10T17:24:31.402Z,98949.80
2019-06-10T17:27:02.626Z,98945.53
2019-06-10T17:29:34.786Z,98947.61
2019-06-10T17:32:07.642Z,98947.53
2019-06-10T17:34:38.051Z,98941.75
2019-06-10T17:37:09.665Z,98946.91
2019-06-10T17:39:42.876Z,98955.39
2019-06-10T17:42:15.801Z,98952.66
2019-06-10T17:44:46.882Z,98958.56
2019-06-10T17:47:18.854Z,98955.75
2019-06-10T17:49:50.782Z,98959.49
2019-06-10T17:52:21.980Z,98955.42
2019-06-10T17:54:52.763Z,98954.86
2019-06-10T17:57:26.545Z,98949.34
2019-06-10T17:59:58.091Z,98955.42
2019-06-10T18:02:31.805Z,98965.16
2019-06-10T18:05:05.594Z,98963.84
2019-06-10T18:07:37.972Z,98961.38
2019-06-10T18:10:09.122Z,98958.31
2019-06-10T18:12:42.291Z,98962.45
2019-06-10T18:15:14.144Z,98970.02
2019-06-10T18:17:46.918Z,98967.00
2019-06-10T18:20:22.334Z,98973.40
2019-06-10T18:22:54.473Z,98973.97
2019-06-10T18:25:26.911Z,98977.49
2019-06-10T18:27:57.949Z,98982.88
2019-06-10T18:30:35.633Z,98987.42
2019-06-10T18:33:05.267Z,98995.22
2019-06-10T18:35:37.628Z,98997.80
2019-06-10T18:38:09.983Z,99003.07
2019-06-10T18:40:43.086Z,98997.96
2019-06-10T18:43:18.214Z,98996.78
2019-06-10T18:45:49.045Z,98999.73
2019-06-10T18:48:20.130Z,98997.02
2019-06-10T18:50:53.308Z,98990.73
2019-06-10T18:53:24.278Z,98986.57
2019-06-10T18:55:55.147Z,98988.42
2019-06-10T18:58:26.168Z,98984.56
2019-06-10T19:01:05.167Z,98973.77
2019-06-10T19:03:34.424Z,98981.66
2019-06-10T19:06:07.186Z,98976.64
2019-06-10T19:08:41.348Z,98978.88
2019-06-10T19:11:13.186Z,98981.11
2019-06-10T19:13:46.541Z,98982.27
2019-06-10T19:16:17.138Z,98980.67
2019-06-10T19:18:56.575Z,98984.33
2019-06-10T19:21:32.441Z,98988.22
2019-06-10T19:24:04.218Z,98987.02
2019-06-10T19:26:37.386Z,98994.97
2019-06-10T19:29:10.414Z,98994.64
2019-06-10T19:31:45.857Z,98999.67
2019-06-10T19:34:16.382Z,99002.56
2019-06-10T19:36:49.399Z,99004.33
2019-06-10T19:39:22.200Z,99005.13
2019-06-10T19:41:54.463Z,99003.41
2019-06-10T19:44:25.370Z,98997.44
2019-06-10T19:46:57.600Z,99004.36
2019-06-10T19:49:28.461Z,99006.73
2019-06-10T19:51:59.600Z,99017.37
2019-06-10T19:54:32.319Z,99022.88
2019-06-10T19:57:04.080Z,99029.22
2019-06-10T19:59:51.060Z,99031.06
2019-06-10T20:02:10.518Z,99027.66
2019-06-10T20:04:45.262Z,99030.66
2019-06-10T20:07:17.471Z,99028.87
2019-06-10T20:09:48.478Z,99030.28
2019-06-10T20:12:19.732Z,99029.02
2019-06-10T20:14:52.910Z,99033.94
2019-06-10T20:17:23.664Z,99023.45
2019-06-10T20:19:54.642Z,99019.53
2019-06-10T20:22:27.601Z,99022.55
2019-06-10T20:25:03.645Z,99013.98
2019-06-10T20:27:35.552Z,99015.18
2019-06-10T20:30:23.453Z,99008.24
2019-06-10T20:32:46.504Z,99010.14
2019-06-10T20:35:16.857Z,99001.38
2019-06-10T20:37:49.941Z,99007.09
2019-06-10T20:40:20.974Z,99003.78
2019-06-10T20:42:55.386Z,99004.66
2019-06-10T20:45:25.833Z,99007.91
2019-06-10T20:47:57.787Z,99011.47
2019-06-10T20:50:32.125Z,99000.44
2019-06-10T20:53:14.241Z,98997.83
2019-06-10T20:55:41.409Z,98995.50
2019-06-10T20:58:12.433Z,98990.30
2019-06-10T21:00:51.048Z,98990.81
2019-06-10T21:03:17.866Z,98987.83
2019-06-10T21:05:50.465Z,98978.70
2019-06-10T21:08:24.932Z,98984.44
2019-06-10T21:10:58.523Z,98980.18
2019-06-10T21:13:32.998Z,98986.58
2019-06-10T21:16:04.130Z,98990.17
2019-06-10T21:18:34.911Z,98994.35
2019-06-10T21:21:05.904Z,98989.89
2019-06-10T21:23:38.947Z,98990.03
2019-06-10T21:26:12.439Z,98990.87
2019-06-10T21:28:45.547Z,98995.39
2019-06-10T21:31:18.003Z,98996.86
2019-06-10T21:33:49.525Z,98995.31
2019-06-10T21:36:23.939Z,98990.08
2019-06-10T21:38:55.953Z,98993.41
2019-06-10T21:41:28.056Z,98996.27
2019-06-10T21:43:59.724Z,98989.88
2019-06-10T21:46:32.612Z,98990.59
2019-06-10T21:49:04.063Z,98995.55
2019-06-10T21:51:35.453Z,98998.44
2019-06-10T21:54:08.098Z,98996.99
2019-06-10T21:56:39.100Z,98985.98
2019-06-10T21:59:09.567Z,98990.93
2019-06-10T22:01:44.341Z,98993.56
2019-06-10T22:04:17.845Z,98993.10
2019-06-10T22:06:54.398Z,98993.59
2019-06-10T22:09:24.185Z,99002.63
2019-06-10T22:11:56.184Z,98999.39
2019-06-10T22:14:27.206Z,99004.41
2019-06-10T22:17:00.158Z,99004.63
2019-06-10T22:19:33.193Z,98996.67
2019-06-10T22:22:05.244Z,98994.89
2019-06-10T22:24:37.127Z,98997.72
2019-06-10T22:27:10.342Z,99008.30
2019-06-10T22:29:43.329Z,99012.35
2019-06-10T22:32:16.204Z,99007.36
2019-06-10T22:34:48.177Z,99008.32
2019-06-10T22:37:20.200Z,99010.80
2019-06-10T22:39:54.578Z,99010.00
2019-06-10T22:42:25.932Z,99008.33
2019-06-10T22:44:58.077Z,99013.44
2019-06-10T22:47:28.536Z,99006.92
2019-06-10T22:50:06.959Z,99013.12
2019-06-10T22:52:35.278Z,99012.16
2019-06-10T22:55:07.667Z,99008.47
2019-06-10T22:57:43.731Z,99009.08
2019-06-10T23:00:15.409Z,99003.86
2019-06-10T23:02:46.295Z,98999.56
2019-06-10T23:05:18.204Z,99004.80
2019-06-10T23:07:52.807Z,99005.51
2019-06-10T23:10:24.464Z,98997.44
2019-06-10T23:12:58.503Z,98998.27
2019-06-10T23:15:32.183Z,98987.12
2019-06-10T23:18:03.523Z,98978.19
2019-06-10T23:20:34.597Z,98981.73
2019-06-10T23:23:06.391Z,98986.95
2019-06-10T23:25:40.142Z,98979.36
2019-06-10T23:28:13.176Z,98980.42
2019-06-10T23:30:46.874Z,98979.34
2019-06-10T23:33:19.483Z,98970.20
2019-06-10T23:35:52.598Z,98978.13
2019-06-10T23:38:24.394Z,98973.41
2019-06-10T23:40:56.948Z,98974.80
2019-06-10T23:43:27.389Z,98973.13
2019-06-10T23:45:59.274Z,98973.48
2019-06-10T23:48:32.987Z,98971.12
2019-06-10T23:51:05.186Z,98963.05
2019-06-10T23:53:37.835Z,98958.77
2019-06-10T23:56:08.638Z,98958.77
2019-06-10T23:58:43.335Z,98960.58
